{site.name} Logo

Login | Create Account

Middleburg, FL Single Family Real Estate Listings

328 Total Real Estate Listings * Click on table heading to sort
Date Posted Property Type Property Style Address Price Living Area Lot Size Price/Sq Ft.
2014-04-24 Single Family Ranch; Traditional 2786 Ravines Rd Middleburg, FL 32068 $245,000 2,442 sq. ft. $100
2014-04-24 Single Family Ranch 1146 Branan Field Rd Middleburg, FL 32068 $119,900 1,251 sq. ft. 87,120 sq. ft. $96
2014-04-23 Single Family Ranch 1853 Broadhaven Dr Middleburg, FL 32068 $163,400 1,884 sq. ft. $87
2014-04-23 Single Family Ranch 4699 Pine Lake Dr Middleburg, FL 32068 $149,900 1,974 sq. ft. $76
2014-04-23 Single Family Ranch 3050 Bent Bow Ln Middleburg, FL 32068 $112,500 1,356 sq. ft. $83
2014-04-22 Single Family Traditional 1844 Woodland Glen Rd Middleburg, FL 32068 $243,990 2,566 sq. ft. $95
2014-04-22 Single Family Traditional 1807 Woodland Glen Rd Middleburg, FL 32068 $244,990 2,566 sq. ft. $95
2014-04-22 Single Family Traditional 3909 Great Falls Loop Middleburg, FL 32068 $234,990 2,363 sq. ft. $99
2014-04-22 Single Family Traditional 3855 Beacon Rock Ln Middleburg, FL 32068 $194,990 1,798 sq. ft. $108
2014-04-22 Single Family Traditional 1811 Woodland Glen Rd Middleburg, FL 32068 $194,990 1,798 sq. ft. $108
2014-04-22 Single Family Traditional 1837 Woodland Glen Rd Middleburg, FL 32068 $189,990 1,798 sq. ft. $106
2014-04-22 Single Family Traditional 1808 Woodland Glen Rd Middleburg, FL 32068 $179,990 1,701 sq. ft. $106
2014-04-22 Single Family Traditional 1841 Woodland Glen Rd Middleburg, FL 32068 $166,990 1,470 sq. ft. $114
2014-04-22 Single Family Contemporary 1881 Dartmouth Dr Middleburg, FL 32068 $139,000 1,842 sq. ft. $75
2014-04-22 Single Family 543 Kay Rd Middleburg, FL 32068 $121,000 1,792 sq. ft. 49,223 sq. ft. $68
2014-04-22 Single Family Traditional 3532 Alec Dr Middleburg, FL 32068 $101,900 1,432 sq. ft. $71
2014-04-22 Single Family Traditional 3548 Alec Dr Middleburg, FL 32068 $98,500 1,292 sq. ft. $76
2014-04-22 Single Family Contemporary 2422 Hibiscus Ave Middleburg, FL 32068 $94,900 1,296 sq. ft. $73
2014-04-22 Single Family 2082 Paloma Ct Middleburg, FL 32068 $55,000 1,512 sq. ft. $36
2014-04-21 Single Family Traditional 4316 Chokeberry Rd Middleburg, FL 32068 $165,000 1,900 sq. ft. $87
2014-04-20 Single Family 2942 Tuscarora Trl Middleburg, FL 32068 $122,900 1,730 sq. ft. $71
2014-04-19 Single Family Traditional 3075 Bent Bow Ln Middleburg, FL 32068 $224,900 2,820 sq. ft. $80
2014-04-19 Single Family 2979 Ravine Hill Dr Middleburg, FL 32068 $163,000 2,336 sq. ft. $70
2014-04-19 Single Family 2823 Southampton Dr Middleburg, FL 32068 $125,000 1,518 sq. ft. $82
2014-04-19 Single Family Contemporary; Townhouse 1863 Lago-Del-Sur Middleburg, FL 32068 $70,000 1,152 sq. ft. $61
2014-04-19 Single Family 5145 Cr 218 Middleburg, FL 32068 $66,990 1,556 sq. ft. $43
2014-04-18 Single Family Ranch 4803 Cattail St Middleburg, FL 32068 $92,000 1,512 sq. ft. 49,658 sq. ft. $61
2014-04-18 Single Family Ranch 46 Parsley Ave Middleburg, FL 32068 $85,000 1,512 sq. ft. 49,658 sq. ft. $56
2014-04-18 Single Family Ranch 1407 Blue Jay Dr Middleburg, FL 32068 $69,900 2,240 sq. ft. $31
2014-04-18 Single Family Ranch 4424 Longmire Rd Middleburg, FL 32068 $55,000 1,728 sq. ft. $32
2014-04-17 Single Family Ranch; Traditional 3010 Hidden Oaks Dr Middleburg, FL 32068 $229,000 2,116 sq. ft. 24,394 sq. ft. $108
2014-04-17 Single Family Contemporary; Townhouse 3874 Green View Ter Middleburg, FL 32068 $189,900 2,337 sq. ft. $81
2014-04-17 Single Family Traditional 1667 Night Owl Trl Middleburg, FL 32068 $183,750 2,552 sq. ft. $72
2014-04-17 Single Family 1946 Choctwa Trl Middleburg, FL 32068 $124,900 1,508 sq. ft. $83
2014-04-16 Single Family 3806 Woodmere Ln Middleburg, FL 32068 $349,900 2,700 sq. ft. $130
2014-04-16 Single Family Traditional 3770 Creek Hollow Ln Middleburg, FL 32068 $259,812 2,856 sq. ft. $91
2014-04-16 Single Family 1792 Sheraton Lakes Cir Middleburg, FL 32068 $99,900 1,272 sq. ft. $79
2014-04-15 Single Family Traditional 1219 Foxmeadow Middleburg, FL 32068 $199,000 1,980 sq. ft. 44,867 sq. ft. $101
2014-04-15 Single Family Contemporary 4181 Appaloosa Middleburg, FL 32068 $119,900 2,052 sq. ft. $58
2014-04-15 Single Family 4611 Cr 218 Middleburg, FL 32068 $39,900 1,248 sq. ft. 44,867 sq. ft. $32
2014-04-14 Single Family Bungalow; Contemporary; Patio Home 3417 Alec Dr Middleburg, FL 32068 $100,000 1,190 sq. ft. $84
2014-04-13 Single Family Ranch 4231 Southern Magnolia Ln Middleburg, FL 32068 $177,100 1,502 sq. ft. $118
2014-04-12 Single Family Traditional 3122 Nautilus Rd Middleburg, FL 32068 $829,000 3,792 sq. ft. $219
2014-04-12 Single Family Traditional 4379 Sidewinder Trl Middleburg, FL 32068 $392,500 3,050 sq. ft. $129
2014-04-12 Single Family Traditional 3337 New Beginnings Ln Middleburg, FL 32068 $285,000 3,061 sq. ft. $93
2014-04-12 Single Family 1230 Musket Ridge Rd Middleburg, FL 32068 $264,888 2,206 sq. ft. 45,738 sq. ft. $120
2014-04-12 Single Family Traditional 4756 Saddlehorn Trl Middleburg, FL 32068 $249,000 2,337 sq. ft. $107
2014-04-12 Single Family Traditional 4822 Belladonna St Middleburg, FL 32068 $199,977 2,171 sq. ft. $92
2014-04-12 Single Family Contemporary 1587 Night Owl Middleburg, FL 32068 $157,000 1,461 sq. ft. $107
2014-04-12 Single Family Traditional 5337 Angus Rd Middleburg, FL 32068 $136,900 1,620 sq. ft. $85
2014-04-12 Single Family 3473 Pope Rd Middleburg, FL 32068 $41,200 1,536 sq. ft. 107,158 sq. ft. $27
2014-04-12 Single Family Ranch 1582 Crandall Ln Middleburg, FL 32068 $24,900 901 sq. ft. 32,670 sq. ft. $28
2014-04-11 Single Family 4607 Pine Lake Dr Middleburg, FL 32068 $252,990 2,732 sq. ft. $93
2014-04-11 Single Family 2415 Moon Harbor Way Way Middleburg, FL 32068 $209,000 2,303 sq. ft. $91
2014-04-09 Single Family 3858 Main Middleburg, FL 32068 $248,900 2,408 sq. ft. 69,696 sq. ft. $103
2014-04-09 Single Family Ranch 1958 Tomahawk Dr Middleburg, FL 32068 $169,900 1,837 sq. ft. $92
2014-04-08 Single Family Ranch; Traditional 3160 Peppertree Middleburg, FL 32068 $210,000 2,331 sq. ft. $90
2014-04-08 Single Family Contemporary 1158 Camp Ridge Ln Middleburg, FL 32068 $198,000 2,410 sq. ft. $82
2014-04-08 Single Family Contemporary 1350 Camp Ridge Middleburg, FL 32068 $177,900 1,843 sq. ft. $97
2014-04-08 Single Family Ranch 4236 Scenic Dr Middleburg, FL 32068 $169,900 1,651 sq. ft. $103
2014-04-07 Single Family 4268 Powderhorn Ct Middleburg, FL 32068 $475,000 3,622 sq. ft. $131
2014-04-06 Single Family 1382 Coopers Hawk Way Middleburg, FL 32068 $355,000 3,297 sq. ft. $108
2014-04-06 Single Family Ranch 1660 Aletha Manor Middleburg, FL 32068 $80,000 1,355 sq. ft. $59
2014-04-05 Single Family Ranch 2807 Ravine Hill Middleburg, FL 32068 $169,000 1,646 sq. ft. $103
2014-04-05 Single Family Ranch 4979 Bent Twig Rd Middleburg, FL 32068 $95,000 1,984 sq. ft. 43,996 sq. ft. $48
2014-04-05 Single Family 1701 Balboa Ln Middleburg, FL 32068 $92,000 1,352 sq. ft. 21,780 sq. ft. $68
2014-04-05 Single Family Ranch 2055 Liberty Way Middleburg, FL 32068 $89,900 1,456 sq. ft. $62
2014-04-05 Single Family Ranch 5117 Huntington Ct Middleburg, FL 32068 $75,000 1,186 sq. ft. 76,230 sq. ft. $63
2014-04-04 Single Family Traditional 3399 Chimney Dr Middleburg, FL 32068 $260,000 2,971 sq. ft. $88
2014-04-04 Single Family Ranch 4141 Weathered Pine Ct Middleburg, FL 32068 $144,000 1,574 sq. ft. $91
2014-04-03 Single Family Traditional 4039 Sandhill Crane Ter Ter Middleburg, FL 32068 $258,900 2,497 sq. ft. $104
2014-04-03 Single Family Ranch 2543 Begonia Dr Middleburg, FL 32068 $249,000 2,394 sq. ft. 233,482 sq. ft. $104
2014-04-03 Single Family Traditional 3628 Alec Dr Middleburg, FL 32068 $150,000 1,854 sq. ft. $81
2014-04-03 Single Family 2323 Bencrest Ter Middleburg, FL 32068 $109,977 1,649 sq. ft. $67
2014-04-03 Single Family 3488 Devilwood St Middleburg, FL 32068 $50,000 1,084 sq. ft. $46
2014-04-02 Single Family Traditional 1806 Lakedge Dr Middleburg, FL 32068 $650,000 4,700 sq. ft. 110,207 sq. ft. $138
2014-04-02 Single Family 2300 Bur Oak Pl Middleburg, FL 32068 $215,000 2,076 sq. ft. $104
2014-04-02 Single Family 3031 Zeyno Dr Middleburg, FL 32068 $170,000 1,894 sq. ft. $90
2014-04-02 Single Family 4595 Mayflower St Middleburg, FL 32068 $115,805 1,200 sq. ft. $97
2014-04-02 Single Family Traditional 4555 Stewart Pl Middleburg, FL 32068 $79,000 2,356 sq. ft. $34
2014-04-01 Single Family Ranch 5325 Valor Ct Middleburg, FL 32068 $54,900 1,152 sq. ft. $48
2014-04-01 Single Family Traditional 4491 Allaboard Dr Middleburg, FL 32068 $194,900 2,086 sq. ft. $93
2014-04-01 Single Family Traditional 1662 Sugarpine Dr Middleburg, FL 32068 $159,000 1,611 sq. ft. $99
2014-04-01 Single Family 5149 Buckhead Rd Middleburg, FL 32068 $135,000 3,212 sq. ft. $42
2014-04-01 Single Family 1591 Acanthus Mnr Middleburg, FL 32068 $136,000 1,620 sq. ft. $84
2014-03-30 Single Family 2874 Cranberry Cir Middleburg, FL 32068 $129,000 1,211 sq. ft. $107
2014-03-30 Single Family Stilt House 4088 Scenic Dr Middleburg, FL 32068 $324,900 1,472 sq. ft. 34,412 sq. ft. $221
2014-03-30 Single Family Traditional 4142 Scenic Dr Middleburg, FL 32068 $215,000 2,136 sq. ft. 31,799 sq. ft. $101
2014-03-30 Single Family Traditional 2659 Malibu Cir Middleburg, FL 32065 $99,900 1,176 sq. ft. 9,148 sq. ft. $85
2014-03-30 Single Family 5717 Maverick Rd Middleburg, FL 32068 $39,900 1,280 sq. ft. 53,143 sq. ft. $31
2014-03-29 Single Family 1119 Buggy Whip Trl Middleburg, FL 32068 $450,000 2,164 sq. ft. $208
2014-03-29 Single Family Traditional 2974 Florence Dr Middleburg, FL 32068 $329,500 2,919 sq. ft. 43,560 sq. ft. $113
2014-03-29 Single Family Traditional 2024 Farm Way Middleburg, FL 32068 $123,050 1,810 sq. ft. $68
2014-03-29 Single Family Traditional 2005 Candlewood Ct Middleburg, FL 32068 $74,900 1,404 sq. ft. $53
2014-03-29 Single Family 2864 Spring Dr Middleburg, FL 32068 $24,000 1,296 sq. ft. $19
2014-03-28 Single Family Traditional 2885 Tuscarora Trl Middleburg, FL 32068 $121,900 1,425 sq. ft. $86
2014-03-28 Single Family Contemporary 4928 Joan Ave Middleburg, FL 32068 $78,000 2,280 sq. ft. 44,867 sq. ft. $34
2014-03-27 Single Family Colonial 2562 Crooked Creek Pt Middleburg, FL 32068 $550,000 4,400 sq. ft. $125
2014-03-27 Single Family Colonial; Traditional 3749 Creek Hollow Ln Middleburg, FL 32068 $272,400 2,391 sq. ft. 22,216 sq. ft. $114
2014-03-27 Single Family Ranch 2972 Longleaf Ranch Cir Middleburg, FL 32068 $195,000 2,169 sq. ft. 21,780 sq. ft. $90
2014-03-27 Single Family 1821 Lago-Del-Sur Dr Middleburg, FL 32068 $87,900 1,264 sq. ft. $70
2014-03-26 Single Family Contemporary 2921 Ravine Hill Dr Middleburg, FL 32068 $165,000 2,100 sq. ft. $79
2014-03-26 Single Family Contemporary 3027 Valkyrie Rd Middleburg, FL 32068 $141,000 2,826 sq. ft. $50
2014-03-26 Single Family 2641 Alton Ct Middleburg, FL 32068 $99,900 1,367 sq. ft. $73
2014-03-26 Single Family 97 Plankton Middleburg, FL 32068 $49,900 1,446 sq. ft. 82,764 sq. ft. $35
2014-03-25 Single Family Traditional 2523 Marlin Ct Middleburg, FL 32068 $419,000 2,429 sq. ft. $172
2014-03-25 Single Family 4160 Whitesville Landing Ct Middleburg, FL 32068 $300,000 2,581 sq. ft. $116
2014-03-25 Single Family Traditional 1111 Pine Island Ct Middleburg, FL 32068 $229,900 2,534 sq. ft. $91
2014-03-25 Single Family Traditional 18 Bullrush Ct Middleburg, FL 32068 $79,900 1,456 sq. ft. 49,658 sq. ft. $55
2014-03-24 Single Family Ranch 3450 Olympic Dr Middleburg, FL 32043 $275,000 2,404 sq. ft. $114
2014-03-23 Single Family Traditional 3042 Hidden Oaks Dr Middleburg, FL 32068 $189,900 2,087 sq. ft. $91
2014-03-23 Single Family Ranch 3200 Valley View Crest Middleburg, FL 32068 $48,900 924 sq. ft. 54,450 sq. ft. $53
2014-03-21 Single Family 1690 Susan Dr Middleburg, FL 32065 $135,000 1,248 sq. ft. $108
2014-03-21 Single Family 12 Ivy Ct Middleburg, FL 32068 $73,900 1,605 sq. ft. $46
2014-03-20 Single Family Contemporary 1793 Foggy Day Dr Middleburg, FL 32068 $150,000 1,803 sq. ft. $83
2014-03-20 Single Family 1371 Summerbrook Dr Middleburg, FL 32068 $139,900 1,467 sq. ft. $95
2014-03-20 Single Family Ranch 1994 Gentle Breeze Middleburg, FL 32068 $48,000 1,680 sq. ft. $29
2014-03-19 Single Family Ranch 1873 Moorings Cir Middleburg, FL 32068 $799,900 3,500 sq. ft. 32,234 sq. ft. $229
2014-03-19 Single Family Ranch 3317 Thunder Rd Middleburg, FL 32068 $209,500 1,900 sq. ft. 50,094 sq. ft. $110
2014-03-19 Single Family Ranch 4858 Creek Bluff Ln Middleburg, FL 32068 $181,990 2,089 sq. ft. $87
2014-03-19 Single Family Traditional 4043 Edgeland Trl Middleburg, FL 32068 $135,000 2,037 sq. ft. $66
2014-03-19 Single Family Ranch 4862 Creek Bluff Ln Middleburg, FL 32068 $149,990 1,650 sq. ft. $91
2014-03-18 Single Family Traditional 5192 Country Estates Middleburg, FL 32068 $129,900 1,644 sq. ft. $79
2014-03-18 Single Family Contemporary 2052 Hunters Trace Cir Middleburg, FL 32068 $114,888 1,260 sq. ft. $91
2014-03-18 Single Family Ranch 5493 Big Branch Rd Middleburg, FL 32068 $90,000 1,680 sq. ft. $54
2014-03-17 Single Family Ranch 4038 Amanda Ln Middleburg, FL 32068 $79,900 1,896 sq. ft. $42
2014-03-15 Single Family Ranch 1875 Nolan Rd Middleburg, FL 32068 $114,900 1,366 sq. ft. $84
2014-03-15 Single Family Contemporary 1600 Greenwood Ln Middleburg, FL 32068 $89,900 1,426 sq. ft. $63
2014-03-15 Single Family 1877 Manitoba Ct Middleburg, FL 32068 $66,500 1,434 sq. ft. $46
2014-03-14 Single Family Ranch 4968 Laurel St Middleburg, FL 32068 $38,000 1,976 sq. ft. $19
2014-03-14 Single Family Traditional 3050 Longleaf Ranch Cir Middleburg, FL 32068 $274,900 3,118 sq. ft. $88
2014-03-14 Single Family Ranch 1427 Lantern Light Trl Middleburg, FL 32068 $222,950 2,470 sq. ft. $90
2014-03-14 Single Family Ranch 1175 Camp Ridge Ln Middleburg, FL 32068 $205,950 1,900 sq. ft. $108
2014-03-14 Single Family 2705 Greenwood Ln Middleburg, FL 32068 $119,000 1,215 sq. ft. 22,216 sq. ft. $98
2014-03-11 Single Family Ranch 1947 St George Ct Middleburg, FL 32068 $192,500 2,030 sq. ft. 7,841 sq. ft. $95
2014-03-11 Single Family Traditional 2232 Alderney Ct Middleburg, FL 32068 $119,000 1,344 sq. ft. $89
2014-03-08 Single Family Ranch; Traditional 3234 Bellows Ct Middleburg, FL 32068 $190,000 2,207 sq. ft. $86
2014-03-08 Single Family ZERO lot line 688 Sunny Stroll Dr Middleburg, FL 32068 $190,000 2,519 sq. ft. $75
2014-03-08 Single Family 1732 Hollow Glen Dr Middleburg, FL 32068 $145,000 1,735 sq. ft. $84
2014-03-08 Single Family Ranch 4855 Dandelion St Middleburg, FL 32068 $89,900 1,746 sq. ft. 46,609 sq. ft. $51
2014-03-07 Single Family Split Level; Tri-Level 2070 Cornell Rd Middleburg, FL 32068 $450,000 3,604 sq. ft. $125
2014-03-07 Single Family Contemporary 4770 Creek Bluff Ln Middleburg, FL 32068 $190,000 2,900 sq. ft. $66
2014-03-06 Single Family Traditional 1812 Lakemont Cir Middleburg, FL 32068 $464,000 2,234 sq. ft. $208
2014-03-06 Single Family Ranch 3973 Sunrise Farms Rd Middleburg, FL 32068 $229,900 1,450 sq. ft. $159
2014-03-06 Single Family Traditional 2135 Hill Rd Middleburg, FL 32068 $85,000 768 sq. ft. $111
2014-03-06 Single Family 4180 Scenic Dr Middleburg, FL 32068 $74,900 1,591 sq. ft. $47
2014-03-05 Single Family Bungalow 3761 Main St Middleburg, FL 32068 $269,900 1,128 sq. ft. $239
2014-03-05 Single Family Ranch; Traditional 3932 Lake Crest Ter Ter Middleburg, FL 32068 $174,000 2,090 sq. ft. $83
2014-03-05 Single Family Ranch 3925 Hideaway Ln Middleburg, FL 32068 $139,900 1,781 sq. ft. $79
2014-03-03 Single Family Traditional 1100 Orchard Oriole Pl Middleburg, FL 32068 $283,900 2,770 sq. ft. $102
2014-03-02 Single Family Traditional 1335 Coopers Hawk Way Middleburg, FL 32068 $279,900 2,509 sq. ft. $112
2014-02-27 Single Family 4162 Scenic Dr Middleburg, FL 32068 $199,900 1,320 sq. ft. $151
2014-02-27 Single Family Ranch 1130 Cactus Cut Rd Middleburg, FL 32068 $205,000 2,280 sq. ft. 54,450 sq. ft. $90
2014-02-27 Single Family Middleburg, FL 32068 $55,000 1,620 sq. ft. $34
2014-02-26 Single Family 4118 Buddingtons Landing Ct Middleburg, FL 32068 $480,000 3,490 sq. ft. 182,081 sq. ft. $138
2014-02-26 Single Family Ranch 4518 Discovery Dr Middleburg, FL 32068 $219,000 2,084 sq. ft. 53,579 sq. ft. $105
2014-02-26 Single Family 3143 Fieldcrest Dr Middleburg, FL 32068 $195,000 1,952 sq. ft. $100
2014-02-26 Single Family 4849 Cr 218 Middleburg, FL 32068 $124,900 1,900 sq. ft. $66
2014-02-26 Single Family Traditional 449 Kay Rd Middleburg, FL 32068 $59,000 1,080 sq. ft. $55
2014-02-25 Single Family Ranch 3267 Blanding Blvd Middleburg, FL 32068 $189,900 1,864 sq. ft. 47,916 sq. ft. $102
2014-02-25 Single Family Ranch 2134 Hibiscus Ave Middleburg, FL 32068 $170,000 1,851 sq. ft. 49,658 sq. ft. $92
2014-02-25 Single Family Ranch 3046 Black Creek Dr Middleburg, FL 32068 $124,900 1,568 sq. ft. $80
2014-02-25 Single Family Ranch 4203 Clove Middleburg, FL 32068 $98,500 1,722 sq. ft. $57
2014-02-23 Single Family 4449 Tumbleweed Rd Middleburg, FL 32068 $249,900 3,551 sq. ft. $70
2014-02-23 Single Family Ranch 3205 Grand Teton Dr Middleburg, FL 32068 $185,000 1,755 sq. ft. $105
2014-02-22 Single Family Ranch 1762 Foggy Day Middleburg, FL 32068 $179,900 1,860 sq. ft. $97
2014-02-22 Single Family 2692 Pinewood Blvd Middleburg, FL 32068 $52,900 1,120 sq. ft. $47
2014-02-21 Single Family Traditional 1256 Foxmeadow Trl Middleburg, FL 32068 $239,000 2,064 sq. ft. $116
2014-02-21 Single Family Ranch 1513 Lantern Light Trl Middleburg, FL 32068 $158,000 1,462 sq. ft. 5,663 sq. ft. $108
2014-02-21 Single Family 197 Mimosa Ave Middleburg, FL 32068 $123,800 1,732 sq. ft. 49,658 sq. ft. $71
2014-02-20 Single Family 4706 Calendula Ave Middleburg, FL 32068 $115,000 1,456 sq. ft. $79
2014-02-20 Single Family 4121 Saunders Middleburg, FL 32068 $49,000 2,050 sq. ft. $24
2014-02-19 Single Family Contemporary 2066 Cornell Rd Middleburg, FL 32068 $359,900 2,296 sq. ft. $157
2014-02-18 Single Family Tudor 3200 Cr 218 Middleburg, FL 32068 $399,000 4,890 sq. ft. 142,441 sq. ft. $82
2014-02-18 Single Family 1399 King Rail Ln Middleburg, FL 32068 $324,748 3,049 sq. ft. $107
2014-02-18 Single Family Traditional 4657 Petunia Ave Middleburg, FL 32068 $154,000 1,272 sq. ft. 49,658 sq. ft. $121
2014-02-17 Single Family 2061 Liberty Way Middleburg, FL 32068 $59,900 1,152 sq. ft. 46,174 sq. ft. $52
2014-02-15 Single Family 2995 Bent Bow Ln Middleburg, FL 32068 $199,900 3,055 sq. ft. $65
2014-02-14 Single Family Ranch 4220 Saddlehorn Trl Middleburg, FL 32068 $163,400 1,963 sq. ft. $83
2014-02-14 Single Family Ranch 1691 Northglen Cir Middleburg, FL 32068 $168,900 1,750 sq. ft. $97
2014-02-14 Single Family 5493 Newton Rd Middleburg, FL 32068 $54,900 1,914 sq. ft. $29
2014-02-13 Single Family Traditional 1824 Lakedge Dr Middleburg, FL 32068 $246,000 2,600 sq. ft. $95
2014-02-13 Single Family Traditional 5091 Carter Spencer Rd Middleburg, FL 32068 $244,900 3,104 sq. ft. $79
2014-02-13 Single Family Stilt House 4085 Lazy Acres Middleburg, FL 32068 $169,000 1,424 sq. ft. $119
2014-02-13 Single Family 4207 Falcon Run Ln Middleburg, FL 32068 $44,900 1,056 sq. ft. $43
2014-02-12 Single Family 191 Mimosa Ave Middleburg, FL 32068 $122,000 1,092 sq. ft. 49,658 sq. ft. $112
2014-02-08 Single Family Traditional 2481 Begonia Dr Middleburg, FL 32068 $429,000 3,499 sq. ft. 58,370 sq. ft. $123
2014-02-08 Single Family 5329 Otter Ln Middleburg, FL 32068 $169,000 1,860 sq. ft. 43,560 sq. ft. $91
2014-02-08 Single Family 1996 Gentle Breeze Rd Middleburg, FL 32068 $24,900 672 sq. ft. $37
2014-02-06 Single Family Ranch 1814 Hollow Glen Dr Middleburg, FL 32068 $170,000 2,274 sq. ft. $75
2014-02-05 Single Family 1427 King Rail Ln Middleburg, FL 32068 $301,396 2,956 sq. ft. $102
2014-02-05 Single Family Ranch 2208 Cortez Ct Middleburg, FL 32068 $129,900 1,551 sq. ft. $84
2014-02-04 Single Family Ranch 4020 Half Moon Cir Middleburg, FL 32068 $257,500 3,838 sq. ft. $67
2014-02-04 Single Family 4662 Pine Lake Dr Middleburg, FL 32068 $229,900 2,606 sq. ft. $88
2014-02-04 Single Family Ranch 2462 Ambrosia Dr Middleburg, FL 32068 $110,000 1,534 sq. ft. $72
2014-02-02 Single Family Traditional 743 Celebration Ln Middleburg, FL 32068 $125,000 1,454 sq. ft. $86
2014-02-01 Single Family Contemporary 1316 Hawks Crest Dr Middleburg, FL 32068 $277,500 3,568 sq. ft. $78
2014-02-01 Single Family Ranch 3222 Chimney Dr Middleburg, FL 32068 $140,000 2,570 sq. ft. $54
2014-01-31 Single Family 1947 Moorings Cir Middleburg, FL 32068 $449,900 3,565 sq. ft. $126
2014-01-31 Single Family 1611 Northglen Cir Middleburg, FL 32068 $139,900 2,058 sq. ft. $68
2014-01-30 Single Family 5151 Mallard Rd Middleburg, FL 32068 $111,000 1,998 sq. ft. 65,340 sq. ft. $56
2014-01-28 Single Family Ranch 3484 Rustic Oak Trl Middleburg, FL 32068 $239,900 2,491 sq. ft. $96
2014-01-28 Single Family Traditional 1605 Twin Oak Ln Middleburg, FL 32068 $105,700 1,273 sq. ft. $83
2014-01-27 Single Family 1788 Sheraton Lakes Cir Middleburg, FL 32068 $124,000 2,000 sq. ft. $62
2014-01-26 Single Family Ranch 1443 Lantern Light Trl Middleburg, FL 32068 $227,950 2,500 sq. ft. $91
2014-01-26 Single Family Ranch 1435 Lantern Light Trl Middleburg, FL 32068 $210,950 2,500 sq. ft. $84
2014-01-26 Single Family Ranch 1282 Camp Ridge Ln Middleburg, FL 32068 $204,950 2,250 sq. ft. $91
2014-01-25 Single Family French 1423 King Rail Ln Middleburg, FL 32068 $268,118 2,290 sq. ft. $117
2014-01-25 Single Family 5017 Licorice Ct Middleburg, FL 32068 $94,900 1,427 sq. ft. $67
2014-01-24 Single Family Traditional 2516 Marlin Ct Middleburg, FL 32068 $429,000 2,823 sq. ft. $152
2014-01-24 Single Family Ranch 4840 Dandelion Middleburg, FL 32068 $75,000 1,560 sq. ft. $48
2014-01-24 Single Family 1641 Mary Beth Middleburg, FL 32068 $60,000 1,036 sq. ft. $58
2014-01-23 Single Family Ranch 1016 Grackle Ct Middleburg, FL 32068 $138,000 1,860 sq. ft. $74
2014-01-22 Single Family Traditional 2349 Oak Point Ter Middleburg, FL 32068 $185,000 2,220 sq. ft. $83
2014-01-22 Single Family 1770 Foggy Day Dr Middleburg, FL 32068 $189,000 2,172 sq. ft. $87
2014-01-22 Single Family Traditional 3307 Wilderness Middleburg, FL 32068 $92,000 1,796 sq. ft. $51
2014-01-21 Single Family 1824 Broadhaven Dr Middleburg, FL 32068 $210,000 2,002 sq. ft. 8,276 sq. ft. $105
2014-01-18 Single Family Traditional 3047 Nautilus Rd Middleburg, FL 32068 $169,900 3,080 sq. ft. $55
2014-01-17 Single Family Ranch 2770 Ravines Rd Middleburg, FL 32068 $209,900 2,138 sq. ft. $98
2014-01-15 Single Family Traditional 3074 Bent Bow Middleburg, FL 32068 $240,000 2,841 sq. ft. $84
2014-01-15 Single Family Traditional 1815 Foggy Day Dr Middleburg, FL 32068 $139,900 1,306 sq. ft. $107
2014-01-15 Single Family Ranch 503 Kay Rd Middleburg, FL 32068 $108,000 1,388 sq. ft. 43,560 sq. ft. $78
2014-01-14 Single Family Ranch 2821 Seminole Village Dr Middleburg, FL 32068 $199,900 2,500 sq. ft. $80
2014-01-12 Single Family Traditional 1912 Eclipse Dr Middleburg, FL 32068 $96,000 1,378 sq. ft. $70
2014-01-09 Single Family Townhouse 3107 Zeyno Dr Middleburg, FL 32068 $139,900 1,810 sq. ft. $77
2014-01-09 Single Family 1186 Summer Spring Dr Middleburg, FL 32068 $131,900 1,500 sq. ft. $88
2014-01-09 Single Family Townhouse 3105 Zeyno Dr Middleburg, FL 32068 $126,900 1,580 sq. ft. $80
2014-01-08 Single Family Townhouse 3101 Zeyno Dr Middleburg, FL 32068 $139,900 1,810 sq. ft. $77
2014-01-08 Single Family Townhouse 3103 Zeyno Dr Middleburg, FL 32068 $129,900 1,620 sq. ft. $80
2014-01-07 Single Family 3917 Trail Ridge Rd Middleburg, FL 32068 $269,900 3,005 sq. ft. $90
2014-01-07 Single Family 4308 Song Sparrow Dr Middleburg, FL 32068 $265,445 2,783 sq. ft. $95
2014-01-07 Single Family Four Plex 3862 Green View Middleburg, FL 32068 $170,000 2,450 sq. ft. $69
2014-01-07 Single Family Traditional 4450 Eli Whitney Dr Middleburg, FL 32068 $154,900 1,640 sq. ft. $94
2014-01-07 Single Family 1510 Lantern Light Trl Middleburg, FL 32068 $159,990 1,494 sq. ft. 6,098 sq. ft. $107
2014-01-03 Single Family Ranch 278 Pearwood Cir Middleburg, FL 32068 $130,000 1,340 sq. ft. $97
2014-01-03 Single Family Ranch 1786 Sheraton Lakes Cir Middleburg, FL 32068 $79,000 1,260 sq. ft. $63
2014-01-03 Single Family 5294 Mallard Middleburg, FL 32068 $42,900 900 sq. ft. $48
2014-01-01 Single Family Ranch 1781 Dartmouth Dr Middleburg, FL 32068 $131,900 1,923 sq. ft. $69
2013-12-31 Single Family 4221 Falcon Run Middleburg, FL 32068 $119,000 1,344 sq. ft. $89
2013-12-29 Single Family 3733 Main St Middleburg, FL 32068 $199,900 3,409 sq. ft. $59
2013-12-27 Single Family Contemporary 3041 Hidden Oaks Dr Middleburg, FL 32068 $186,000 1,879 sq. ft. $99
2013-12-21 Single Family 2704 Forman Middleburg, FL 32068 $24,900 784 sq. ft. 10,019 sq. ft. $32
2013-12-19 Single Family Ranch 1138 Cactus Cut Rd Middleburg, FL 32068 $235,000 2,569 sq. ft. $91
2013-12-18 Single Family Traditional 76 Swimming Pen Dr Middleburg, FL 32068 $249,900 2,400 sq. ft. $104
2013-12-17 Single Family Ranch 1691 Pelican Pl Middleburg, FL 32068 $435,000 1,940 sq. ft. $224
2013-12-17 Single Family Traditional 3842 Beacon Rock Ln Middleburg, FL 32068 $174,990 1,540 sq. ft. $114
2013-12-17 Single Family 5119 Huntington Ct Middleburg, FL 32068 $69,900 1,404 sq. ft. $50
2013-12-15 Single Family 4931 Caraway St Middleburg, FL 32068 $100,000 2,356 sq. ft. 49,658 sq. ft. $42
2013-12-14 Single Family Ranch 267 Brickyard Rd Middleburg, FL 32068 $517,000 2,800 sq. ft. $185
2013-12-13 Single Family Ranch 3982 Trail Ridge Rd Middleburg, FL 32068 $150,000 1,957 sq. ft. $77
2013-12-13 Single Family Ranch 3621 County Road 215 Middleburg, FL 32068 $179,000 3,178 sq. ft. $56
2013-12-13 Single Family 2469 Ambrosia Dr Middleburg, FL 32068 $129,900 1,400 sq. ft. 9,148 sq. ft. $93
2013-12-09 Single Family 1410 Runes Ct Middleburg, FL 32068 $165,900 1,982 sq. ft. $84
2013-12-08 Single Family Patio Home; Townhouse 3878 Green View Ter Middleburg, FL 32068 $199,900 2,207 sq. ft. $91
2013-12-07 Single Family Traditional 2810 Anchor Rd Middleburg, FL 32068 $595,000 5,734 sq. ft. $104
2013-12-03 Single Family Traditional 2849 Blackberry Ave Middleburg, FL 32068 $234,900 2,610 sq. ft. $90
2013-11-28 Single Family Traditional 3808 Nature Walk Ct Middleburg, FL 32068 $169,900 1,996 sq. ft. $85
2013-11-27 Single Family 4767 Sedge St Middleburg, FL 32068 $89,900 1,740 sq. ft. $52
2013-11-26 Single Family Traditional 2320 Bencrest Ter Middleburg, FL 32068 $169,900 2,125 sq. ft. $80
2013-11-22 Single Family Ranch 4229 Scenic Dr Middleburg, FL 32068 $127,500 1,282 sq. ft. 35,719 sq. ft. $99
2013-11-21 Single Family Traditional 3880 Great Falls Loop Middleburg, FL 32068 $179,990 1,798 sq. ft. $100
2013-11-19 Single Family 1783 Nolan Rd Middleburg, FL 32068 $289,900 2,798 sq. ft. 827,640 sq. ft. $104
2013-11-19 Single Family Traditional 2946 Longleaf Ranch Cir Middleburg, FL 32068 $198,000 2,362 sq. ft. $84
2013-11-11 Single Family 205 Brickyard Rd Middleburg, FL 32068 $100,000 2,108 sq. ft. 15,682 sq. ft. $47
2013-11-09 Single Family 3909 Trail Ridge Rd Middleburg, FL 32068 $249,900 2,462 sq. ft. $102
2013-11-09 Single Family Traditional 2180 Khaki Ct Middleburg, FL 32068 $119,900 1,254 sq. ft. $96
2013-11-07 Single Family 4242 Everett Ave Middleburg, FL 32068 $39,900 1,920 sq. ft. $21
2013-11-06 Single Family Ranch 4963 Peppergrass St Middleburg, FL 32068 $89,900 1,392 sq. ft. $65
2013-11-06 Single Family Traditional 3604 Whisper Creek Blvd Middleburg, FL 32068 $165,900 3,901 sq. ft. $43
2013-11-06 Single Family 3176 Wilderness Dr Middleburg, FL 32068 $149,900 2,246 sq. ft. $67
2013-11-05 Single Family Contemporary 1874 Reed Valley Way Middleburg, FL 32068 $162,000 1,741 sq. ft. $93
2013-11-02 Single Family Traditional 76 Harmony Hall Rd Middleburg, FL 32068 $565,000 3,192 sq. ft. $177
2013-11-01 Single Family 2285+2281 Crickett Rd Middleburg, FL 32068 $353,000 1,978 sq. ft. $178
2013-11-01 Single Family 2281+2285 Cricket Rd Middleburg, FL 32068 $353,000 2,343 sq. ft. $151
2013-10-31 Single Family Traditional 1159 Lenda Ln Middleburg, FL 32068 $79,900 2,108 sq. ft. $38
2013-10-29 Single Family Ranch 3079 Longleaf Ranch Cir Middleburg, FL 32068 $217,100 2,010 sq. ft. $108
2013-10-29 Single Family Ranch 2731 Forman Cir Middleburg, FL 32068 $34,000 892 sq. ft. $38
2013-10-28 Single Family Contemporary 3633 Meadowgreen Ln Middleburg, FL 32068 $234,888 3,567 sq. ft. $66
2013-10-24 Single Family Ranch 2876 Ravine Hill Dr Middleburg, FL 32068 $174,900 2,336 sq. ft. $75
2013-10-23 Single Family 3178 Nautilus Road Middleburg, FL 32068 $165,000 2,040 sq. ft. 436 sq. ft. $81
2013-10-23 Single Family Duplex 2094 Cornell Rd Middleburg, FL 32068 $87,000 2,020 sq. ft. $43
2013-10-19 Single Family Ranch 2167 Mallard Middleburg, FL 32068 $79,900 1,597 sq. ft. $50
2013-10-16 Single Family Traditional 909 Raindrop Ln Middleburg, FL 32068 $198,990 2,201 sq. ft. $90
2013-10-13 Single Family Ranch 2108 Center Way Middleburg, FL 32068 $259,000 2,000 sq. ft. $130
2013-10-13 Single Family Ranch 1268 Camp Ridge Ln Middleburg, FL 32068 $194,950 2,250 sq. ft. $87
2013-10-13 Single Family Ranch 1264 Camp Ridge Ln Middleburg, FL 32068 $181,950 1,900 sq. ft. $96
2013-10-10 Single Family Traditional 4083 Sunnyside Dr Middleburg, FL 32068 $64,999 1,404 sq. ft. $46
2013-10-09 Single Family 3047 Zeyno Dr Middleburg, FL 32068 $129,000 1,765 sq. ft. $73
2013-10-07 Single Family 48 Yucca St Middleburg, FL 32068 $89,900 1,931 sq. ft. 49,658 sq. ft. $47
2013-09-30 Single Family Contemporary 4263 Powderhorn Ct Middleburg, FL 32068 $449,000 2,940 sq. ft. 56,192 sq. ft. $153
2013-09-25 Single Family 782 Celebration Ln Middleburg, FL 32068 $193,720 2,001 sq. ft. $97
2013-09-25 Single Family 2448 Larkspur Ave Middleburg, FL 32068 $79,900 1,512 sq. ft. 49,658 sq. ft. $53
2013-09-23 Single Family Ranch 4911 Chickpea St Middleburg, FL 32068 $66,000 2,052 sq. ft. $32
2013-09-19 Single Family 4820 Kangaroo Cir Middleburg, FL 32068 $82,900 1,338 sq. ft. $62
2013-09-18 Single Family 1967 Moorings Cir Middleburg, FL 32068 $381,990 3,076 sq. ft. $124
2013-09-17 Single Family 1803 Moorings Cir Middleburg, FL 32068 $363,990 3,003 sq. ft. $121
2013-09-11 Single Family 793 Celebration Ln Middleburg, FL 32068 $173,135 1,716 sq. ft. $101
2013-09-10 Single Family Contemporary 1110 Silver Spur Ct Middleburg, FL 32068 $223,900 1,754 sq. ft. $128
2013-09-07 Single Family Ranch 2217 Scarlet Oak Ct Middleburg, FL 32068 $195,400 2,030 sq. ft. $96
2013-09-06 Single Family 1869 Penzance Pkwy Middleburg, FL 32068 $95,000 1,444 sq. ft. $66
2013-09-05 Single Family Traditional 1146 T Square Ct Middleburg, FL 32068 $209,900 2,331 sq. ft. $90
2013-08-28 Single Family 3937 Sereno Ct Middleburg, FL 32068 $224,000 2,134 sq. ft. $105
2013-08-20 Single Family 728 Sunny Stroll Dr Middleburg, FL 32068 $183,260 1,838 sq. ft. $100
2013-08-10 Single Family Contemporary 1191 Cactus Cut Rd Middleburg, FL 32068 $130,000 1,687 sq. ft. 43,560 sq. ft. $77
2013-08-07 Single Family Traditional 2954 Black Creek Dr Middleburg, FL 32068 $209,900 1,637 sq. ft. $128
2013-08-06 Single Family 3794 Creek Hollow Ln Middleburg, FL 32068 $280,000 2,817 sq. ft. $99
2013-08-05 Single Family Contemporary 2656 Halperns Way Middleburg, FL 32068 $224,900 2,777 sq. ft. $81
2013-07-27 Single Family Ranch 1439 Lantern Light Trl Middleburg, FL 32068 $172,950 1,750 sq. ft. $99
2013-07-26 Single Family 852 Sunny Stroll Dr Middleburg, FL 32068 $253,068 3,284 sq. ft. $77
2013-07-24 Single Family Ranch 2846 Tansy Ave Middleburg, FL 32068 $199,900 2,046 sq. ft. $98
2013-07-17 Single Family Ranch 1858 Killarn Cir Middleburg, FL 32068 $90,000 1,235 sq. ft. $73
2013-07-12 Single Family Contemporary 1727 Landward Ln Middleburg, FL 32068 $729,000 3,598 sq. ft. $203
2013-07-11 Single Family 1446 Lantern Light Trl Middleburg, FL 32068 $242,950 3,100 sq. ft. $78
2013-07-11 Single Family Ranch 1447 Lantern Light Trl Middleburg, FL 32068 $179,950 1,750 sq. ft. $103
2013-07-01 Single Family 4014 Scenic Dr Middleburg, FL 32068 $329,900 1,292 sq. ft. $255
2013-06-26 Single Family Spanish 2347 Halperns Way Middleburg, FL 32068 $499,000 2,944 sq. ft. $169
2013-06-11 Single Family Ranch 4671 Pine Lake Dr Middleburg, FL 32068 $200,000 2,697 sq. ft. $74
2013-05-29 Single Family 3029 Ten Rod Rd Middleburg, FL 32068 $115,000 1,890 sq. ft. $61
2013-05-22 Single Family Stilt House 4315 Lazy Acres Rd Middleburg, FL 32068 $225,000 1,296 sq. ft. $174
2013-05-03 Single Family 2724 Fennel Middleburg, FL 32068 $124,900 1,292 sq. ft. $97
2013-04-17 Single Family Contemporary 1829 Northglen Cir Middleburg, FL 32068 $132,900 2,016 sq. ft. $66
2013-03-23 Single Family Ranch 3007 Longleaf Ranch Cir Middleburg, FL 32068 $241,450 2,265 sq. ft. 21,780 sq. ft. $107
2013-03-20 Single Family 1220 Ravens Trace Ln Middleburg, FL 32068 $182,000 2,891 sq. ft. $63
2013-03-19 Single Family 2436 Moon Harbor Way Middleburg, FL 32068 $147,250 2,129 sq. ft. $69
2013-02-05 Single Family 3967 Inglewood Dr Middleburg, FL 32068 $138,900 1,144 sq. ft. $121
2012-09-27 Single Family Ranch 2975 Florence Dr Middleburg, FL 32068 $375,000 2,674 sq. ft. $140
2012-09-20 Single Family Traditional 2962 Deer Ave Middleburg, FL 32068 $120,000 1,600 sq. ft. 49,658 sq. ft. $75
2012-04-21 Single Family Traditional 3124 Fieldcrest Dr Middleburg, FL 32068 $159,900 2,303 sq. ft. $69